L' Anse, Michigan
Current Conditions -  °F | °C
As of 1:18 PM on Friday 31 Oct 2014 (Local Time) from KCMX Reporting Station
Overcast Overcast  
Wind Chill: 22°   Ceiling: 3500
Heat Index: 31°   Visibility: 9mi
Dew Point: 22°   Wind: 12mph
Humidity: 69%   Direction: 20°NNE
Pressure: 30.44"   Gusts: NA
Location:  46.7277°N, 88.2881°W
Report Text: KCMX 311718Z AUTO 02010KT 9SM SCT029 BKN035 OVC047 M01/M06 A3044 RMK AO2 SNE17 P0000 T10061056
Loading
Personal Weather Stations






























Interactive Weather Map
Tropical Storm Tracking
New forecast layout! Learn more

10-Day Weather Forecast

Advertisements
Track Severe Weather on mobile